sensor_id;sensor_type;location;lat;lon;timestamp;temperature;humidity
12408;DHT22;6268;48.188;17.134;2022-12-29T00:01:52;2.30;99.90
12408;DHT22;6268;48.188;17.134;2022-12-29T00:04:22;2.30;99.90
12408;DHT22;6268;48.188;17.134;2022-12-29T00:06:52;2.20;99.90
12408;DHT22;6268;48.188;17.134;2022-12-29T00:09:22;2.20;99.90
12408;DHT22;6268;48.188;17.134;2022-12-29T00:11:51;2.20;99.90
12408;DHT22;6268;48.188;17.134;2022-12-29T00:14:20;2.30;99.90
12408;DHT22;6268;48.188;17.134;2022-12-29T00:17:07;2.30;99.90
12408;DHT22;6268;48.188;17.134;2022-12-29T00:19:36;2.20;99.90
12408;DHT22;6268;48.188;17.134;2022-12-29T00:22:22;2.20;99.90
12408;DHT22;6268;48.188;17.134;2022-12-29T00:25:11;2.20;99.90
12408;DHT22;6268;48.188;17.134;2022-12-29T00:27:58;2.30;99.90
12408;DHT22;6268;48.188;17.134;2022-12-29T00:30:44;2.30;99.90
12408;DHT22;6268;48.188;17.134;2022-12-29T00:33:32;2.30;99.90
12408;DHT22;6268;48.188;17.134;2022-12-29T00:36:21;2.20;99.90
12408;DHT22;6268;48.188;17.134;2022-12-29T00:38:57;2.20;99.90
12408;DHT22;6268;48.188;17.134;2022-12-29T00:41:47;2.30;99.90
12408;DHT22;6268;48.188;17.134;2022-12-29T00:44:34;2.30;99.90
12408;DHT22;6268;48.188;17.134;2022-12-29T00:47:02;2.30;99.90
12408;DHT22;6268;48.188;17.134;2022-12-29T00:49:32;2.30;99.90
12408;DHT22;6268;48.188;17.134;2022-12-29T00:52:02;2.30;99.90
12408;DHT22;6268;48.188;17.134;2022-12-29T00:54:34;2.30;99.90
12408;DHT22;6268;48.188;17.134;2022-12-29T00:57:07;2.20;99.90
12408;DHT22;6268;48.188;17.134;2022-12-29T00:59:38;2.30;99.90
12408;DHT22;6268;48.188;17.134;2022-12-29T01:02:08;2.20;99.90
12408;DHT22;6268;48.188;17.134;2022-12-29T01:04:38;2.20;99.90
12408;DHT22;6268;48.188;17.134;2022-12-29T01:07:07;2.10;99.90
12408;DHT22;6268;48.188;17.134;2022-12-29T01:09:36;2.20;99.90
12408;DHT22;6268;48.188;17.134;2022-12-29T01:12:23;2.10;99.90
12408;DHT22;6268;48.188;17.134;2022-12-29T01:15:07;2.10;99.90
12408;DHT22;6268;48.188;17.134;2022-12-29T01:17:38;2.20;99.90
12408;DHT22;6268;48.188;17.134;2022-12-29T01:20:08;2.20;99.90
12408;DHT22;6268;48.188;17.134;2022-12-29T01:22:38;2.20;99.90
12408;DHT22;6268;48.188;17.134;2022-12-29T01:25:09;2.10;99.90
12408;DHT22;6268;48.188;17.134;2022-12-29T01:27:39;2.10;99.90
12408;DHT22;6268;48.188;17.134;2022-12-29T01:30:09;2.10;99.90
12408;DHT22;6268;48.188;17.134;2022-12-29T01:32:38;2.00;99.90
12408;DHT22;6268;48.188;17.134;2022-12-29T01:35:07;2.00;99.90
12408;DHT22;6268;48.188;17.134;2022-12-29T01:37:37;2.00;99.90
12408;DHT22;6268;48.188;17.134;2022-12-29T01:40:07;2.00;99.90
12408;DHT22;6268;48.188;17.134;2022-12-29T01:42:36;2.00;99.90
12408;DHT22;6268;48.188;17.134;2022-12-29T01:45:10;2.00;99.90
12408;DHT22;6268;48.188;17.134;2022-12-29T01:47:43;2.00;99.90
12408;DHT22;6268;48.188;17.134;2022-12-29T01:50:16;2.00;99.90
12408;DHT22;6268;48.188;17.134;2022-12-29T01:52:54;1.90;99.90
12408;DHT22;6268;48.188;17.134;2022-12-29T01:55:33;1.90;99.90
12408;DHT22;6268;48.188;17.134;2022-12-29T01:58:06;1.90;99.90
12408;DHT22;6268;48.188;17.134;2022-12-29T02:00:37;1.90;99.90
12408;DHT22;6268;48.188;17.134;2022-12-29T02:03:07;1.80;99.90
12408;DHT22;6268;48.188;17.134;2022-12-29T02:05:40;1.80;99.90
12408;DHT22;6268;48.188;17.134;2022-12-29T02:08:13;1.70;99.90
12408;DHT22;6268;48.188;17.134;2022-12-29T02:10:43;1.80;99.90
12408;DHT22;6268;48.188;17.134;2022-12-29T02:13:16;1.80;99.90
12408;DHT22;6268;48.188;17.134;2022-12-29T02:15:54;1.80;99.90
12408;DHT22;6268;48.188;17.134;2022-12-29T02:18:37;1.80;99.90
12408;DHT22;6268;48.188;17.134;2022-12-29T02:24:52;1.80;99.90
12408;DHT22;6268;48.188;17.134;2022-12-29T02:27:55;1.70;99.90
12408;DHT22;6268;48.188;17.134;2022-12-29T02:30:48;1.70;99.90
12408;DHT22;6268;48.188;17.134;2022-12-29T02:33:37;1.70;99.90
12408;DHT22;6268;48.188;17.134;2022-12-29T02:36:25;1.70;99.90
12408;DHT22;6268;48.188;17.134;2022-12-29T02:39:05;1.70;99.90
12408;DHT22;6268;48.188;17.134;2022-12-29T02:41:49;1.70;99.90
12408;DHT22;6268;48.188;17.134;2022-12-29T02:44:33;1.70;99.90
12408;DHT22;6268;48.188;17.134;2022-12-29T02:47:15;1.80;99.90
12408;DHT22;6268;48.188;17.134;2022-12-29T02:49:53;1.80;99.90
12408;DHT22;6268;48.188;17.134;2022-12-29T02:52:31;1.80;99.90
12408;DHT22;6268;48.188;17.134;2022-12-29T02:55:04;1.80;99.90
12408;DHT22;6268;48.188;17.134;2022-12-29T02:57:35;1.90;99.90
12408;DHT22;6268;48.188;17.134;2022-12-29T03:00:06;1.80;99.90
12408;DHT22;6268;48.188;17.134;2022-12-29T03:03:01;1.90;99.90
12408;DHT22;6268;48.188;17.134;2022-12-29T03:05:51;1.90;99.90
12408;DHT22;6268;48.188;17.134;2022-12-29T03:08:45;1.90;99.90
12408;DHT22;6268;48.188;17.134;2022-12-29T03:11:23;2.00;99.90
12408;DHT22;6268;48.188;17.134;2022-12-29T03:14:27;2.00;99.90
12408;DHT22;6268;48.188;17.134;2022-12-29T03:17:24;2.00;99.90
12408;DHT22;6268;48.188;17.134;2022-12-29T03:20:03;1.90;99.90
12408;DHT22;6268;48.188;17.134;2022-12-29T03:22:40;2.00;99.90
12408;DHT22;6268;48.188;17.134;2022-12-29T03:25:16;2.00;99.90
12408;DHT22;6268;48.188;17.134;2022-12-29T03:27:52;2.00;99.90
12408;DHT22;6268;48.188;17.134;2022-12-29T03:30:24;2.00;99.90
12408;DHT22;6268;48.188;17.134;2022-12-29T03:32:58;2.10;99.90
12408;DHT22;6268;48.188;17.134;2022-12-29T03:35:35;2.10;99.90
12408;DHT22;6268;48.188;17.134;2022-12-29T03:38:09;2.20;99.90
12408;DHT22;6268;48.188;17.134;2022-12-29T03:40:48;2.10;99.90
12408;DHT22;6268;48.188;17.134;2022-12-29T03:43:19;2.10;99.90
12408;DHT22;6268;48.188;17.134;2022-12-29T03:45:48;2.10;99.90
12408;DHT22;6268;48.188;17.134;2022-12-29T03:48:17;2.20;99.90
12408;DHT22;6268;48.188;17.134;2022-12-29T03:50:47;2.20;99.90
12408;DHT22;6268;48.188;17.134;2022-12-29T03:53:16;2.10;99.90
12408;DHT22;6268;48.188;17.134;2022-12-29T03:55:45;2.10;99.90
12408;DHT22;6268;48.188;17.134;2022-12-29T03:58:14;2.10;99.90
12408;DHT22;6268;48.188;17.134;2022-12-29T04:00:44;2.20;99.90
12408;DHT22;6268;48.188;17.134;2022-12-29T04:03:13;2.20;99.90
12408;DHT22;6268;48.188;17.134;2022-12-29T04:05:41;2.20;99.90
12408;DHT22;6268;48.188;17.134;2022-12-29T04:08:12;2.30;99.90
12408;DHT22;6268;48.188;17.134;2022-12-29T04:10:41;2.30;99.90
12408;DHT22;6268;48.188;17.134;2022-12-29T04:13:09;2.30;99.90
12408;DHT22;6268;48.188;17.134;2022-12-29T04:15:38;2.30;99.90
12408;DHT22;6268;48.188;17.134;2022-12-29T04:18:08;2.20;99.90
12408;DHT22;6268;48.188;17.134;2022-12-29T04:20:37;2.20;99.90
12408;DHT22;6268;48.188;17.134;2022-12-29T04:23:25;2.20;99.90
12408;DHT22;6268;48.188;17.134;2022-12-29T04:25:55;2.20;99.90
12408;DHT22;6268;48.188;17.134;2022-12-29T04:28:24;2.20;99.90
12408;DHT22;6268;48.188;17.134;2022-12-29T04:30:53;2.20;99.90
12408;DHT22;6268;48.188;17.134;2022-12-29T04:33:22;2.30;99.90
12408;DHT22;6268;48.188;17.134;2022-12-29T04:35:52;2.30;99.90
12408;DHT22;6268;48.188;17.134;2022-12-29T04:38:22;2.40;99.90
12408;DHT22;6268;48.188;17.134;2022-12-29T04:40:53;2.40;99.90
12408;DHT22;6268;48.188;17.134;2022-12-29T04:43:22;2.30;99.90
12408;DHT22;6268;48.188;17.134;2022-12-29T04:45:50;2.30;99.90
12408;DHT22;6268;48.188;17.134;2022-12-29T04:48:19;2.30;99.90
12408;DHT22;6268;48.188;17.134;2022-12-29T04:50:49;2.20;99.90
12408;DHT22;6268;48.188;17.134;2022-12-29T04:53:18;2.30;99.90
12408;DHT22;6268;48.188;17.134;2022-12-29T04:55:49;2.30;99.90
12408;DHT22;6268;48.188;17.134;2022-12-29T04:58:21;2.40;99.90
12408;DHT22;6268;48.188;17.134;2022-12-29T05:00:51;2.30;99.90
12408;DHT22;6268;48.188;17.134;2022-12-29T05:03:20;2.30;99.90
12408;DHT22;6268;48.188;17.134;2022-12-29T05:05:48;2.20;99.90
12408;DHT22;6268;48.188;17.134;2022-12-29T05:08:17;2.20;99.90
12408;DHT22;6268;48.188;17.134;2022-12-29T05:10:53;2.20;99.90
12408;DHT22;6268;48.188;17.134;2022-12-29T05:13:24;2.20;99.90
12408;DHT22;6268;48.188;17.134;2022-12-29T05:15:53;2.20;99.90
12408;DHT22;6268;48.188;17.134;2022-12-29T05:18:22;2.30;99.90
12408;DHT22;6268;48.188;17.134;2022-12-29T05:20:51;2.30;99.90
12408;DHT22;6268;48.188;17.134;2022-12-29T05:23:20;2.40;99.90
12408;DHT22;6268;48.188;17.134;2022-12-29T05:25:49;2.30;99.90
12408;DHT22;6268;48.188;17.134;2022-12-29T05:28:17;2.30;99.90
12408;DHT22;6268;48.188;17.134;2022-12-29T05:30:49;2.30;99.90
12408;DHT22;6268;48.188;17.134;2022-12-29T05:33:19;2.30;99.90
12408;DHT22;6268;48.188;17.134;2022-12-29T05:35:48;2.30;99.90
12408;DHT22;6268;48.188;17.134;2022-12-29T05:38:17;2.30;99.90
12408;DHT22;6268;48.188;17.134;2022-12-29T05:40:46;2.30;99.90
12408;DHT22;6268;48.188;17.134;2022-12-29T05:43:15;2.30;99.90
12408;DHT22;6268;48.188;17.134;2022-12-29T05:45:44;2.30;99.90
12408;DHT22;6268;48.188;17.134;2022-12-29T05:48:18;2.40;99.90
12408;DHT22;6268;48.188;17.134;2022-12-29T05:50:47;2.30;99.90
12408;DHT22;6268;48.188;17.134;2022-12-29T05:53:17;2.40;99.90
12408;DHT22;6268;48.188;17.134;2022-12-29T05:55:47;2.40;99.90
12408;DHT22;6268;48.188;17.134;2022-12-29T05:58:16;2.30;99.90
12408;DHT22;6268;48.188;17.134;2022-12-29T06:00:45;2.40;99.90
12408;DHT22;6268;48.188;17.134;2022-12-29T06:03:16;2.40;99.90
12408;DHT22;6268;48.188;17.134;2022-12-29T06:05:45;2.30;99.90
12408;DHT22;6268;48.188;17.134;2022-12-29T06:08:14;2.40;99.90
12408;DHT22;6268;48.188;17.134;2022-12-29T06:10:42;2.30;99.90
12408;DHT22;6268;48.188;17.134;2022-12-29T06:13:11;2.30;99.90
12408;DHT22;6268;48.188;17.134;2022-12-29T06:15:40;2.30;99.90
12408;DHT22;6268;48.188;17.134;2022-12-29T06:18:09;2.30;99.90
12408;DHT22;6268;48.188;17.134;2022-12-29T06:20:47;2.30;99.90
12408;DHT22;6268;48.188;17.134;2022-12-29T06:23:16;2.30;99.90
12408;DHT22;6268;48.188;17.134;2022-12-29T06:25:47;2.30;99.90
12408;DHT22;6268;48.188;17.134;2022-12-29T06:28:16;2.30;99.90
12408;DHT22;6268;48.188;17.134;2022-12-29T06:30:45;2.20;99.90
12408;DHT22;6268;48.188;17.134;2022-12-29T06:33:15;2.20;99.90
12408;DHT22;6268;48.188;17.134;2022-12-29T06:35:44;2.30;99.90
12408;DHT22;6268;48.188;17.134;2022-12-29T06:38:15;2.30;99.90
12408;DHT22;6268;48.188;17.134;2022-12-29T06:40:43;2.40;99.90
12408;DHT22;6268;48.188;17.134;2022-12-29T06:43:12;2.40;99.90
12408;DHT22;6268;48.188;17.134;2022-12-29T06:45:41;2.40;99.90
12408;DHT22;6268;48.188;17.134;2022-12-29T06:48:11;2.30;99.90
12408;DHT22;6268;48.188;17.134;2022-12-29T06:50:40;2.30;99.90
12408;DHT22;6268;48.188;17.134;2022-12-29T06:53:10;2.30;99.90
12408;DHT22;6268;48.188;17.134;2022-12-29T06:55:41;2.30;99.90
12408;DHT22;6268;48.188;17.134;2022-12-29T06:58:10;2.40;99.90
12408;DHT22;6268;48.188;17.134;2022-12-29T07:00:39;2.40;99.90
12408;DHT22;6268;48.188;17.134;2022-12-29T07:03:08;2.50;99.90
12408;DHT22;6268;48.188;17.134;2022-12-29T07:05:37;2.60;99.90
12408;DHT22;6268;48.188;17.134;2022-12-29T07:08:06;2.50;99.90
12408;DHT22;6268;48.188;17.134;2022-12-29T07:10:36;2.50;99.90
12408;DHT22;6268;48.188;17.134;2022-12-29T07:13:05;2.50;99.90
12408;DHT22;6268;48.188;17.134;2022-12-29T07:15:35;2.50;99.90
12408;DHT22;6268;48.188;17.134;2022-12-29T07:18:04;2.50;99.90
12408;DHT22;6268;48.188;17.134;2022-12-29T07:20:33;2.50;99.90
12408;DHT22;6268;48.188;17.134;2022-12-29T07:23:02;2.50;99.90
12408;DHT22;6268;48.188;17.134;2022-12-29T07:25:31;2.50;99.90
12408;DHT22;6268;48.188;17.134;2022-12-29T07:28:03;2.50;99.90
12408;DHT22;6268;48.188;17.134;2022-12-29T07:30:33;2.50;99.90
12408;DHT22;6268;48.188;17.134;2022-12-29T07:33:04;2.60;99.90
12408;DHT22;6268;48.188;17.134;2022-12-29T07:35:34;2.60;99.90
12408;DHT22;6268;48.188;17.134;2022-12-29T07:38:03;2.60;99.90
12408;DHT22;6268;48.188;17.134;2022-12-29T07:40:31;2.60;99.90
12408;DHT22;6268;48.188;17.134;2022-12-29T07:43:00;2.70;99.90
12408;DHT22;6268;48.188;17.134;2022-12-29T07:45:30;2.70;99.90
12408;DHT22;6268;48.188;17.134;2022-12-29T07:48:00;2.70;99.90
12408;DHT22;6268;48.188;17.134;2022-12-29T07:50:29;2.70;99.90
12408;DHT22;6268;48.188;17.134;2022-12-29T07:52:58;2.70;99.90
12408;DHT22;6268;48.188;17.134;2022-12-29T07:55:27;2.70;99.90
12408;DHT22;6268;48.188;17.134;2022-12-29T07:57:56;2.70;99.90
12408;DHT22;6268;48.188;17.134;2022-12-29T08:00:25;2.70;99.90
12408;DHT22;6268;48.188;17.134;2022-12-29T08:02:55;2.70;99.90
12408;DHT22;6268;48.188;17.134;2022-12-29T08:05:24;2.70;99.90
12408;DHT22;6268;48.188;17.134;2022-12-29T08:07:53;2.70;99.90
12408;DHT22;6268;48.188;17.134;2022-12-29T08:10:22;2.70;99.90
12408;DHT22;6268;48.188;17.134;2022-12-29T08:12:51;2.80;99.90
12408;DHT22;6268;48.188;17.134;2022-12-29T08:15:20;2.80;99.90
12408;DHT22;6268;48.188;17.134;2022-12-29T08:17:59;2.80;99.90
12408;DHT22;6268;48.188;17.134;2022-12-29T08:20:29;2.80;99.90
12408;DHT22;6268;48.188;17.134;2022-12-29T08:22:57;2.90;99.90
12408;DHT22;6268;48.188;17.134;2022-12-29T08:25:26;3.00;99.90
12408;DHT22;6268;48.188;17.134;2022-12-29T08:27:55;3.00;99.90
12408;DHT22;6268;48.188;17.134;2022-12-29T08:30:24;3.00;99.90
12408;DHT22;6268;48.188;17.134;2022-12-29T08:32:53;3.00;99.90
12408;DHT22;6268;48.188;17.134;2022-12-29T08:35:23;3.00;99.90
12408;DHT22;6268;48.188;17.134;2022-12-29T08:37:52;3.00;99.90
12408;DHT22;6268;48.188;17.134;2022-12-29T08:40:21;3.00;99.90
12408;DHT22;6268;48.188;17.134;2022-12-29T08:42:50;2.90;99.90
12408;DHT22;6268;48.188;17.134;2022-12-29T08:45:19;2.90;99.90
12408;DHT22;6268;48.188;17.134;2022-12-29T08:47:47;2.90;99.90
12408;DHT22;6268;48.188;17.134;2022-12-29T08:50:16;3.00;99.90
12408;DHT22;6268;48.188;17.134;2022-12-29T08:52:47;3.00;99.90
12408;DHT22;6268;48.188;17.134;2022-12-29T08:55:15;3.00;99.90
12408;DHT22;6268;48.188;17.134;2022-12-29T08:57:44;3.00;99.90
12408;DHT22;6268;48.188;17.134;2022-12-29T09:00:14;3.00;99.90
12408;DHT22;6268;48.188;17.134;2022-12-29T09:02:43;3.00;99.90
12408;DHT22;6268;48.188;17.134;2022-12-29T09:05:13;3.00;99.90
12408;DHT22;6268;48.188;17.134;2022-12-29T09:07:42;3.10;99.90
12408;DHT22;6268;48.188;17.134;2022-12-29T09:10:12;3.20;99.90
12408;DHT22;6268;48.188;17.134;2022-12-29T09:12:41;3.20;99.90
12408;DHT22;6268;48.188;17.134;2022-12-29T09:15:10;3.20;99.90
12408;DHT22;6268;48.188;17.134;2022-12-29T09:17:39;3.30;99.90
12408;DHT22;6268;48.188;17.134;2022-12-29T09:20:16;3.30;99.90
12408;DHT22;6268;48.188;17.134;2022-12-29T09:22:46;3.30;99.90
12408;DHT22;6268;48.188;17.134;2022-12-29T09:25:17;3.20;99.90
12408;DHT22;6268;48.188;17.134;2022-12-29T09:27:48;3.20;99.90
12408;DHT22;6268;48.188;17.134;2022-12-29T09:30:17;3.20;99.90
12408;DHT22;6268;48.188;17.134;2022-12-29T09:32:46;3.30;99.90
12408;DHT22;6268;48.188;17.134;2022-12-29T09:35:21;3.40;99.90
12408;DHT22;6268;48.188;17.134;2022-12-29T09:37:50;3.40;99.90
12408;DHT22;6268;48.188;17.134;2022-12-29T09:40:26;3.30;99.90
12408;DHT22;6268;48.188;17.134;2022-12-29T09:43:11;3.30;99.90
12408;DHT22;6268;48.188;17.134;2022-12-29T09:45:52;3.30;99.90
12408;DHT22;6268;48.188;17.134;2022-12-29T09:48:30;3.30;99.90
12408;DHT22;6268;48.188;17.134;2022-12-29T09:51:05;3.30;99.90
12408;DHT22;6268;48.188;17.134;2022-12-29T09:53:42;3.30;99.90
12408;DHT22;6268;48.188;17.134;2022-12-29T09:56:16;3.40;99.90
12408;DHT22;6268;48.188;17.134;2022-12-29T09:58:52;3.40;99.90
12408;DHT22;6268;48.188;17.134;2022-12-29T10:01:30;3.40;99.90
12408;DHT22;6268;48.188;17.134;2022-12-29T10:04:04;3.30;99.90
12408;DHT22;6268;48.188;17.134;2022-12-29T10:06:42;3.30;99.90
12408;DHT22;6268;48.188;17.134;2022-12-29T10:09:42;3.40;99.90
12408;DHT22;6268;48.188;17.134;2022-12-29T10:12:27;3.40;99.90
12408;DHT22;6268;48.188;17.134;2022-12-29T10:15:08;3.40;99.90
12408;DHT22;6268;48.188;17.134;2022-12-29T10:17:47;3.40;99.90
12408;DHT22;6268;48.188;17.134;2022-12-29T10:20:28;3.40;99.90
12408;DHT22;6268;48.188;17.134;2022-12-29T10:23:14;3.40;99.90
12408;DHT22;6268;48.188;17.134;2022-12-29T10:25:55;3.50;99.90
12408;DHT22;6268;48.188;17.134;2022-12-29T10:28:34;3.50;99.90
12408;DHT22;6268;48.188;17.134;2022-12-29T10:31:11;3.60;99.90
12408;DHT22;6268;48.188;17.134;2022-12-29T10:33:50;3.60;99.90
12408;DHT22;6268;48.188;17.134;2022-12-29T10:36:28;3.50;99.90
12408;DHT22;6268;48.188;17.134;2022-12-29T10:39:06;3.50;99.90
12408;DHT22;6268;48.188;17.134;2022-12-29T10:41:46;3.50;99.90
12408;DHT22;6268;48.188;17.134;2022-12-29T10:44:22;3.60;99.90
12408;DHT22;6268;48.188;17.134;2022-12-29T10:46:57;3.50;99.90
12408;DHT22;6268;48.188;17.134;2022-12-29T10:49:32;3.50;99.90
12408;DHT22;6268;48.188;17.134;2022-12-29T10:52:06;3.50;99.90
12408;DHT22;6268;48.188;17.134;2022-12-29T10:54:41;3.60;99.90
12408;DHT22;6268;48.188;17.134;2022-12-29T10:57:20;3.60;99.90
12408;DHT22;6268;48.188;17.134;2022-12-29T10:59:56;3.60;99.90
12408;DHT22;6268;48.188;17.134;2022-12-29T11:05:34;3.60;99.90
12408;DHT22;6268;48.188;17.134;2022-12-29T11:08:10;3.70;99.90
12408;DHT22;6268;48.188;17.134;2022-12-29T11:10:43;3.70;99.90
12408;DHT22;6268;48.188;17.134;2022-12-29T11:13:15;3.80;99.90
12408;DHT22;6268;48.188;17.134;2022-12-29T11:15:47;3.80;99.90
12408;DHT22;6268;48.188;17.134;2022-12-29T11:18:19;3.70;99.90
12408;DHT22;6268;48.188;17.134;2022-12-29T11:20:52;3.70;99.90
12408;DHT22;6268;48.188;17.134;2022-12-29T11:23:25;3.70;99.90
12408;DHT22;6268;48.188;17.134;2022-12-29T11:26:15;3.70;99.90
12408;DHT22;6268;48.188;17.134;2022-12-29T11:31:54;3.80;99.90
12408;DHT22;6268;48.188;17.134;2022-12-29T11:34:26;3.70;99.90
12408;DHT22;6268;48.188;17.134;2022-12-29T11:37:03;3.70;99.90
12408;DHT22;6268;48.188;17.134;2022-12-29T11:39:37;3.70;99.90
12408;DHT22;6268;48.188;17.134;2022-12-29T11:42:15;3.60;99.90
12408;DHT22;6268;48.188;17.134;2022-12-29T11:44:46;3.50;99.90
12408;DHT22;6268;48.188;17.134;2022-12-29T11:47:30;3.60;99.90
12408;DHT22;6268;48.188;17.134;2022-12-29T11:50:02;3.70;99.90
12408;DHT22;6268;48.188;17.134;2022-12-29T11:52:37;3.80;99.90
12408;DHT22;6268;48.188;17.134;2022-12-29T11:55:17;3.90;99.90
12408;DHT22;6268;48.188;17.134;2022-12-29T11:57:50;4.00;99.90
12408;DHT22;6268;48.188;17.134;2022-12-29T12:00:22;4.00;99.90
12408;DHT22;6268;48.188;17.134;2022-12-29T12:02:57;4.10;99.90
12408;DHT22;6268;48.188;17.134;2022-12-29T12:05:35;4.00;99.90
12408;DHT22;6268;48.188;17.134;2022-12-29T12:08:11;4.10;99.90
12408;DHT22;6268;48.188;17.134;2022-12-29T12:10:53;4.00;99.90
12408;DHT22;6268;48.188;17.134;2022-12-29T12:13:29;4.00;99.90
12408;DHT22;6268;48.188;17.134;2022-12-29T12:16:06;4.00;99.90
12408;DHT22;6268;48.188;17.134;2022-12-29T12:18:44;4.10;99.90
12408;DHT22;6268;48.188;17.134;2022-12-29T12:21:23;4.20;99.90
12408;DHT22;6268;48.188;17.134;2022-12-29T12:24:18;4.40;99.90
12408;DHT22;6268;48.188;17.134;2022-12-29T12:27:10;4.50;99.90
12408;DHT22;6268;48.188;17.134;2022-12-29T12:29:48;4.60;99.90
12408;DHT22;6268;48.188;17.134;2022-12-29T12:32:26;4.60;99.90
12408;DHT22;6268;48.188;17.134;2022-12-29T12:35:13;4.70;99.90
12408;DHT22;6268;48.188;17.134;2022-12-29T12:38:00;4.90;99.90
12408;DHT22;6268;48.188;17.134;2022-12-29T12:40:58;4.80;99.90
12408;DHT22;6268;48.188;17.134;2022-12-29T12:43:41;4.90;99.90
12408;DHT22;6268;48.188;17.134;2022-12-29T12:46:54;5.00;99.90
12408;DHT22;6268;48.188;17.134;2022-12-29T12:53:30;5.10;99.90
12408;DHT22;6268;48.188;17.134;2022-12-29T12:56:32;5.00;99.90
12408;DHT22;6268;48.188;17.134;2022-12-29T12:59:23;5.00;99.90
12408;DHT22;6268;48.188;17.134;2022-12-29T13:02:06;4.90;99.90
12408;DHT22;6268;48.188;17.134;2022-12-29T13:04:59;4.80;99.90
12408;DHT22;6268;48.188;17.134;2022-12-29T13:08:05;4.80;99.90
12408;DHT22;6268;48.188;17.134;2022-12-29T13:10:54;4.80;99.90
12408;DHT22;6268;48.188;17.134;2022-12-29T13:13:55;4.80;99.90
12408;DHT22;6268;48.188;17.134;2022-12-29T13:16:40;4.80;99.90
12408;DHT22;6268;48.188;17.134;2022-12-29T13:19:20;4.80;99.90
12408;DHT22;6268;48.188;17.134;2022-12-29T13:22:01;4.70;99.90
12408;DHT22;6268;48.188;17.134;2022-12-29T13:24:51;4.70;99.90
12408;DHT22;6268;48.188;17.134;2022-12-29T13:27:34;4.60;99.90
12408;DHT22;6268;48.188;17.134;2022-12-29T13:30:26;4.70;99.90
12408;DHT22;6268;48.188;17.134;2022-12-29T13:33:07;4.70;99.90
12408;DHT22;6268;48.188;17.134;2022-12-29T13:35:57;4.70;99.90
12408;DHT22;6268;48.188;17.134;2022-12-29T13:38:34;4.80;99.90
12408;DHT22;6268;48.188;17.134;2022-12-29T13:41:09;4.90;99.90
12408;DHT22;6268;48.188;17.134;2022-12-29T13:43:43;4.90;99.90
12408;DHT22;6268;48.188;17.134;2022-12-29T13:46:18;5.00;99.90
12408;DHT22;6268;48.188;17.134;2022-12-29T13:48:58;5.00;99.90
12408;DHT22;6268;48.188;17.134;2022-12-29T13:51:31;4.90;99.90
12408;DHT22;6268;48.188;17.134;2022-12-29T13:54:11;4.80;99.90
12408;DHT22;6268;48.188;17.134;2022-12-29T13:56:52;4.80;99.90
12408;DHT22;6268;48.188;17.134;2022-12-29T13:59:37;4.70;99.90
12408;DHT22;6268;48.188;17.134;2022-12-29T14:02:24;4.70;99.90
12408;DHT22;6268;48.188;17.134;2022-12-29T14:05:15;4.60;99.90
12408;DHT22;6268;48.188;17.134;2022-12-29T14:08:04;4.60;99.90
12408;DHT22;6268;48.188;17.134;2022-12-29T14:10:36;4.60;99.90
12408;DHT22;6268;48.188;17.134;2022-12-29T14:13:12;4.50;99.90
12408;DHT22;6268;48.188;17.134;2022-12-29T14:15:44;4.50;99.90
12408;DHT22;6268;48.188;17.134;2022-12-29T14:18:21;4.50;99.90
12408;DHT22;6268;48.188;17.134;2022-12-29T14:20:57;4.50;99.90
12408;DHT22;6268;48.188;17.134;2022-12-29T14:23:36;4.50;99.90
12408;DHT22;6268;48.188;17.134;2022-12-29T14:26:13;4.50;99.90
12408;DHT22;6268;48.188;17.134;2022-12-29T14:28:46;4.50;99.90
12408;DHT22;6268;48.188;17.134;2022-12-29T14:31:36;4.50;99.90
12408;DHT22;6268;48.188;17.134;2022-12-29T14:34:25;4.50;99.90
12408;DHT22;6268;48.188;17.134;2022-12-29T14:37:00;4.40;99.90
12408;DHT22;6268;48.188;17.134;2022-12-29T14:39:35;4.40;99.90
12408;DHT22;6268;48.188;17.134;2022-12-29T14:42:12;4.40;99.90
12408;DHT22;6268;48.188;17.134;2022-12-29T14:44:48;4.40;99.90
12408;DHT22;6268;48.188;17.134;2022-12-29T14:47:23;4.40;99.90
12408;DHT22;6268;48.188;17.134;2022-12-29T14:50:04;4.40;99.90
12408;DHT22;6268;48.188;17.134;2022-12-29T14:52:45;4.40;99.90
12408;DHT22;6268;48.188;17.134;2022-12-29T14:55:36;4.40;99.90
12408;DHT22;6268;48.188;17.134;2022-12-29T14:58:15;4.40;99.90
12408;DHT22;6268;48.188;17.134;2022-12-29T15:00:48;4.30;99.90
12408;DHT22;6268;48.188;17.134;2022-12-29T15:03:20;4.30;99.90
12408;DHT22;6268;48.188;17.134;2022-12-29T15:05:52;4.30;99.90
12408;DHT22;6268;48.188;17.134;2022-12-29T15:08:26;4.30;99.90
12408;DHT22;6268;48.188;17.134;2022-12-29T15:11:01;4.30;99.90
12408;DHT22;6268;48.188;17.134;2022-12-29T15:13:37;4.20;99.90
12408;DHT22;6268;48.188;17.134;2022-12-29T15:16:22;4.20;99.90
12408;DHT22;6268;48.188;17.134;2022-12-29T15:18:53;4.20;99.90
12408;DHT22;6268;48.188;17.134;2022-12-29T15:21:25;4.20;99.90
12408;DHT22;6268;48.188;17.134;2022-12-29T15:23:57;4.30;99.90
12408;DHT22;6268;48.188;17.134;2022-12-29T15:26:38;4.30;99.90
12408;DHT22;6268;48.188;17.134;2022-12-29T15:29:31;4.30;99.90
12408;DHT22;6268;48.188;17.134;2022-12-29T15:32:22;4.20;99.90
12408;DHT22;6268;48.188;17.134;2022-12-29T15:34:53;4.20;99.90
12408;DHT22;6268;48.188;17.134;2022-12-29T15:37:26;4.30;99.90
12408;DHT22;6268;48.188;17.134;2022-12-29T15:39:58;4.20;99.90
12408;DHT22;6268;48.188;17.134;2022-12-29T15:43:03;4.20;99.90
12408;DHT22;6268;48.188;17.134;2022-12-29T15:45:56;4.30;99.90
12408;DHT22;6268;48.188;17.134;2022-12-29T15:48:30;4.30;99.90
12408;DHT22;6268;48.188;17.134;2022-12-29T15:51:00;4.30;99.90
12408;DHT22;6268;48.188;17.134;2022-12-29T15:53:31;4.30;99.90
12408;DHT22;6268;48.188;17.134;2022-12-29T15:56:06;4.30;99.90
12408;DHT22;6268;48.188;17.134;2022-12-29T15:58:43;4.30;99.90
12408;DHT22;6268;48.188;17.134;2022-12-29T16:01:44;4.30;99.90
12408;DHT22;6268;48.188;17.134;2022-12-29T16:04:14;4.30;99.90
12408;DHT22;6268;48.188;17.134;2022-12-29T16:06:53;4.30;99.90
12408;DHT22;6268;48.188;17.134;2022-12-29T16:09:31;4.30;99.90
12408;DHT22;6268;48.188;17.134;2022-12-29T16:12:05;4.30;99.90
12408;DHT22;6268;48.188;17.134;2022-12-29T16:14:45;4.30;99.90
12408;DHT22;6268;48.188;17.134;2022-12-29T16:17:17;4.30;99.90
12408;DHT22;6268;48.188;17.134;2022-12-29T16:19:52;4.30;99.90
12408;DHT22;6268;48.188;17.134;2022-12-29T16:22:28;4.30;99.90
12408;DHT22;6268;48.188;17.134;2022-12-29T16:25:02;4.30;99.90
12408;DHT22;6268;48.188;17.134;2022-12-29T16:27:38;4.30;99.90
12408;DHT22;6268;48.188;17.134;2022-12-29T16:30:19;4.30;99.90
12408;DHT22;6268;48.188;17.134;2022-12-29T16:32:58;4.30;99.90
12408;DHT22;6268;48.188;17.134;2022-12-29T16:35:37;4.30;99.90
12408;DHT22;6268;48.188;17.134;2022-12-29T16:38:13;4.30;99.90
12408;DHT22;6268;48.188;17.134;2022-12-29T16:40:53;4.20;99.90
12408;DHT22;6268;48.188;17.134;2022-12-29T16:43:27;4.30;99.90
12408;DHT22;6268;48.188;17.134;2022-12-29T16:46:19;4.30;99.90
12408;DHT22;6268;48.188;17.134;2022-12-29T16:48:55;4.30;99.90
12408;DHT22;6268;48.188;17.134;2022-12-29T16:51:30;4.30;99.90